Time;durP1;ratioP1;P1;durP2;ratioP2;P2;SDS_P1;SDS_P2;PMS_P1;PMS_P2;Temp;Humidity;BMP_temperature;BMP_pressure;BME280_temperature;BME280_humidity;BME280_pressure;Samples;Min_cycle;Max_cycle;Signal;HPM_P1;HPM_P2
2023/09/03 00:02:08;;;;;;;11.63;3.00;;;8.80;99.90;;;;;;1899896;73;25311;-88
2023/09/03 00:04:56;;;;;;;4.77;3.10;;;8.70;99.90;;;;;;1888263;75;25250;-88
2023/09/03 00:07:44;;;;;;;5.20;3.60;;;8.70;99.90;;;;;;1907056;74;25896;-88
2023/09/03 00:10:35;;;;;;;7.30;2.93;;;8.70;99.90;;;;;;1902806;73;25282;-87
2023/09/03 00:13:24;;;;;;;3.93;2.97;;;8.70;99.90;;;;;;1901504;74;25773;-88
2023/09/03 00:16:12;;;;;;;5.20;3.30;;;8.60;99.90;;;;;;1899452;75;25263;-88
2023/09/03 00:19:00;;;;;;;6.83;3.50;;;8.70;99.90;;;;;;1914307;74;25281;-88
2023/09/03 00:21:49;;;;;;;10.43;3.47;;;8.60;99.90;;;;;;1895931;75;25779;-88
2023/09/03 00:24:43;;;;;;;11.60;3.60;;;8.60;99.90;;;;;;1917301;74;25282;-88
2023/09/03 00:27:32;;;;;;;4.80;3.23;;;8.60;99.90;;;;;;1898276;74;25675;-88
2023/09/03 00:30:20;;;;;;;4.70;3.40;;;8.50;99.90;;;;;;1906425;73;25254;-88
2023/09/03 00:33:09;;;;;;;4.20;3.30;;;8.50;99.90;;;;;;1913419;73;25267;-88
2023/09/03 00:38:37;;;;;;;8.63;3.23;;;8.50;99.90;;;;;;1924862;72;27077;-87
2023/09/03 00:41:26;;;;;;;7.37;3.67;;;8.40;99.90;;;;;;1905401;73;25330;-87
2023/09/03 00:44:15;;;;;;;6.20;3.07;;;8.40;99.90;;;;;;1909261;74;25268;-87
2023/09/03 00:47:03;;;;;;;4.07;3.17;;;8.40;99.90;;;;;;1922334;73;25221;-87
2023/09/03 00:52:32;;;;;;;5.60;3.53;;;8.50;99.90;;;;;;1947525;72;27023;-87
2023/09/03 00:55:21;;;;;;;5.30;3.43;;;8.50;99.90;;;;;;1938097;73;25301;-87
2023/09/03 00:58:11;;;;;;;4.53;3.10;;;8.60;99.90;;;;;;1934297;72;25779;-87
2023/09/03 01:01:00;;;;;;;7.67;3.80;;;8.70;99.90;;;;;;1922019;73;25215;-87
2023/09/03 01:03:49;;;;;;;5.40;3.40;;;8.70;99.90;;;;;;1934680;72;25358;-87
2023/09/03 01:09:20;;;;;;;8.30;3.90;;;8.80;99.90;;;;;;1928353;72;27581;-86
2023/09/03 01:14:56;;;;;;;4.53;3.30;;;9.00;99.90;;;;;;1942673;72;27120;-87
2023/09/03 01:20:27;;;;;;;4.43;3.37;;;8.90;99.90;;;;;;1949486;72;26957;-87
2023/09/03 01:26:27;;;;;;;6.83;3.47;;;8.80;99.90;;;;;;1932201;72;26978;-86
2023/09/03 01:29:18;;;;;;;7.60;3.60;;;9.00;99.90;;;;;;1902992;74;25718;-89
2023/09/03 01:32:08;;;;;;;5.20;3.47;;;9.10;99.90;;;;;;1915250;73;25286;-88
2023/09/03 01:34:57;;;;;;;9.33;3.53;;;9.10;99.90;;;;;;1912414;75;25272;-88
2023/09/03 01:37:46;;;;;;;4.20;3.33;;;9.10;99.90;;;;;;1912912;74;25272;-88
2023/09/03 01:40:35;;;;;;;8.00;3.47;;;9.00;99.90;;;;;;1899341;74;25267;-88
2023/09/03 01:43:24;;;;;;;8.47;3.50;;;8.80;99.90;;;;;;1893862;73;25299;-89
2023/09/03 01:46:15;;;;;;;4.37;3.30;;;8.80;99.90;;;;;;1907216;73;25695;-87
2023/09/03 01:51:52;;;;;;;9.03;3.30;;;8.90;99.90;;;;;;1934121;72;27677;-87
2023/09/03 01:54:45;;;;;;;5.67;3.87;;;8.80;99.90;;;;;;1882043;75;25300;-87
2023/09/03 01:57:34;;;;;;;5.63;3.60;;;8.70;99.90;;;;;;1886608;75;25313;-87
2023/09/03 02:03:12;;;;;;;5.63;3.30;;;8.50;99.90;;;;;;1947679;72;27718;-88
2023/09/03 02:06:00;;;;;;;7.97;3.50;;;8.40;99.90;;;;;;1934171;73;25249;-88
2023/09/03 02:08:49;;;;;;;5.00;3.50;;;8.40;99.90;;;;;;1929939;73;25700;-88
2023/09/03 02:14:31;;;;;;;5.50;3.70;;;8.50;99.90;;;;;;1950107;71;27561;-86
2023/09/03 02:17:20;;;;;;;7.77;3.30;;;8.50;99.90;;;;;;1921499;72;26597;-86
2023/09/03 02:20:11;;;;;;;5.73;3.70;;;8.40;99.90;;;;;;1914112;72;25234;-87
2023/09/03 02:22:59;;;;;;;4.83;3.37;;;8.40;99.90;;;;;;1909035;72;25213;-86
2023/09/03 02:25:48;;;;;;;6.07;3.37;;;8.40;99.90;;;;;;1926102;72;25302;-86
2023/09/03 02:28:39;;;;;;;7.63;3.43;;;8.40;99.90;;;;;;1947755;72;25290;-89
2023/09/03 02:31:28;;;;;;;9.83;3.53;;;8.40;99.90;;;;;;1931422;73;25684;-89
2023/09/03 02:34:17;;;;;;;4.50;3.23;;;8.40;99.90;;;;;;1911143;73;25259;-87
2023/09/03 02:37:05;;;;;;;6.90;3.80;;;8.30;99.90;;;;;;1917645;74;25648;-86
2023/09/03 02:39:54;;;;;;;7.67;3.53;;;8.30;99.90;;;;;;1928032;72;25211;-87
2023/09/03 02:42:42;;;;;;;6.57;3.47;;;8.30;99.90;;;;;;1914287;72;25356;-86
2023/09/03 02:45:30;;;;;;;7.13;3.47;;;8.40;99.90;;;;;;1879436;75;25673;-86
2023/09/03 02:51:01;;;;;;;7.27;3.57;;;8.40;99.90;;;;;;1944469;72;27165;-87
2023/09/03 02:53:53;;;;;;;7.00;3.50;;;8.30;99.90;;;;;;1926841;73;25210;-87
2023/09/03 02:56:41;;;;;;;9.20;3.83;;;8.30;99.90;;;;;;1918993;73;25711;-87
2023/09/03 02:59:31;;;;;;;7.70;3.60;;;8.20;99.90;;;;;;1931278;73;25355;-87
2023/09/03 03:02:20;;;;;;;8.67;4.10;;;8.10;99.90;;;;;;1924379;73;25296;-87
2023/09/03 03:05:10;;;;;;;10.37;3.50;;;8.00;99.90;;;;;;1943227;73;25375;-87
2023/09/03 03:08:02;;;;;;;5.40;3.00;;;8.00;99.90;;;;;;1937538;73;25216;-87
2023/09/03 03:10:50;;;;;;;6.13;3.50;;;8.00;99.90;;;;;;1920964;73;25235;-87
2023/09/03 03:13:40;;;;;;;4.67;3.13;;;8.00;99.90;;;;;;1928511;73;25632;-87
2023/09/03 03:19:10;;;;;;;7.63;3.33;;;8.10;99.90;;;;;;1927360;72;27170;-88
2023/09/03 03:21:58;;;;;;;4.97;3.30;;;8.20;99.90;;;;;;1900926;73;25208;-88
2023/09/03 03:24:47;;;;;;;6.13;3.50;;;8.10;99.90;;;;;;1916089;74;25215;-88
2023/09/03 03:27:37;;;;;;;5.50;3.47;;;8.10;99.90;;;;;;1908822;73;25247;-88
2023/09/03 03:33:10;;;;;;;5.43;3.40;;;8.00;99.90;;;;;;1943131;71;26972;-88
2023/09/03 03:36:00;;;;;;;5.90;3.20;;;7.90;99.90;;;;;;1931263;73;25204;-88
2023/09/03 03:38:49;;;;;;;4.43;3.10;;;7.90;99.90;;;;;;1933178;72;25253;-88
2023/09/03 03:41:39;;;;;;;7.47;3.27;;;7.90;99.90;;;;;;1930017;72;25220;-88
2023/09/03 03:44:27;;;;;;;3.67;2.70;;;7.80;99.90;;;;;;1924102;74;25192;-89
2023/09/03 03:47:16;;;;;;;5.33;3.33;;;7.70;99.90;;;;;;1915203;74;25801;-89
2023/09/03 03:50:04;;;;;;;4.90;3.20;;;7.60;99.90;;;;;;1918224;73;25164;-89
2023/09/03 04:08:44;;;;;;;4.20;3.13;;;7.60;99.90;;;;;;1922534;72;27967;-88
2023/09/03 04:11:35;;;;;;;6.33;3.60;;;7.60;99.90;;;;;;1911898;75;25683;-88
2023/09/03 04:14:24;;;;;;;9.70;3.30;;;7.50;99.90;;;;;;1895924;73;25337;-88
2023/09/03 04:17:13;;;;;;;5.10;3.33;;;7.60;99.90;;;;;;1917668;73;25656;-88
2023/09/03 04:20:02;;;;;;;11.37;3.70;;;7.60;99.90;;;;;;1903616;73;25319;-88
2023/09/03 04:25:32;;;;;;;4.67;3.40;;;7.70;99.90;;;;;;1940034;72;27012;-87
2023/09/03 04:28:21;;;;;;;5.77;3.50;;;7.60;99.90;;;;;;1910215;73;25227;-87
2023/09/03 04:31:10;;;;;;;4.87;3.30;;;7.70;99.90;;;;;;1906749;73;25228;-87
2023/09/03 04:33:59;;;;;;;4.70;3.63;;;7.70;99.90;;;;;;1891946;73;25165;-87
2023/09/03 04:39:29;;;;;;;5.80;3.70;;;7.80;99.90;;;;;;1932548;72;27429;-87
2023/09/03 04:42:18;;;;;;;8.00;3.83;;;7.90;99.90;;;;;;1872065;75;25279;-87
2023/09/03 04:45:09;;;;;;;8.37;3.43;;;8.10;99.90;;;;;;1856337;76;25319;-87
2023/09/03 04:47:58;;;;;;;4.17;3.20;;;8.20;99.90;;;;;;1878234;76;25246;-87
2023/09/03 04:50:47;;;;;;;3.97;3.30;;;8.40;99.90;;;;;;1863938;76;25729;-87
2023/09/03 04:53:35;;;;;;;6.80;3.60;;;8.50;99.90;;;;;;1865382;76;25185;-87
2023/09/03 04:56:24;;;;;;;5.90;3.30;;;8.80;99.90;;;;;;1852977;76;25294;-87
2023/09/03 04:59:13;;;;;;;6.73;3.10;;;9.10;99.90;;;;;;1870112;76;25229;-87
2023/09/03 05:02:02;;;;;;;3.40;2.70;;;9.20;99.90;;;;;;1867589;76;25668;-87
2023/09/03 05:04:51;;;;;;;7.00;2.63;;;9.30;99.90;;;;;;1874997;76;25333;-87
2023/09/03 05:07:39;;;;;;;7.90;2.70;;;9.40;99.90;;;;;;1869300;76;25346;-87
2023/09/03 05:10:28;;;;;;;3.80;2.73;;;9.70;99.90;;;;;;1870848;75;25919;-87
2023/09/03 05:13:16;;;;;;;4.50;2.60;;;9.80;99.90;;;;;;1863379;76;25708;-90
2023/09/03 05:18:44;;;;;;;2.57;2.37;;;10.00;99.90;;;;;;1928039;72;27566;-88
2023/09/03 05:21:32;;;;;;;4.37;2.87;;;10.00;99.90;;;;;;1878817;75;25241;-87
2023/09/03 05:24:21;;;;;;;4.30;2.90;;;10.10;99.90;;;;;;1905216;75;25241;-87
2023/09/03 05:27:09;;;;;;;8.17;3.70;;;10.20;99.90;;;;;;1888151;75;25783;-87
2023/09/03 05:29:58;;;;;;;3.93;3.07;;;10.30;99.90;;;;;;1863269;76;25235;-87
2023/09/03 05:32:47;;;;;;;4.47;3.10;;;10.30;99.90;;;;;;1894746;74;25254;-87
2023/09/03 05:38:16;;;;;;;5.27;2.63;;;10.50;99.90;;;;;;1945881;72;27863;-87
2023/09/03 05:41:04;;;;;;;5.97;2.97;;;10.50;99.90;;;;;;1927254;73;25900;-87
2023/09/03 05:43:54;;;;;;;4.87;2.47;;;10.50;99.90;;;;;;1917929;73;25333;-87
2023/09/03 05:46:43;;;;;;;4.33;2.50;;;10.60;99.90;;;;;;1902043;73;25687;-87
2023/09/03 05:52:12;;;;;;;4.10;2.50;;;10.60;99.90;;;;;;1940845;72;27460;-86
2023/09/03 05:57:40;;;;;;;4.67;2.40;;;10.70;99.90;;;;;;1947881;72;26910;-87
2023/09/03 06:00:28;;;;;;;4.07;2.43;;;10.80;99.90;;;;;;1921455;73;25180;-87
2023/09/03 06:05:57;;;;;;;5.07;2.57;;;11.10;99.90;;;;;;1940326;72;27073;-87
2023/09/03 06:08:45;;;;;;;3.97;2.50;;;11.30;99.90;;;;;;1897534;75;25311;-87
2023/09/03 06:11:34;;;;;;;4.77;2.60;;;11.40;99.90;;;;;;1852027;76;25176;-87
2023/09/03 06:14:23;;;;;;;2.87;2.30;;;11.50;99.90;;;;;;1888546;75;25728;-87
2023/09/03 06:17:11;;;;;;;8.67;2.30;;;11.60;99.90;;;;;;1894804;75;25283;-87
2023/09/03 06:20:00;;;;;;;4.63;2.27;;;11.60;99.90;;;;;;1897095;75;25229;-87
2023/09/03 06:22:48;;;;;;;3.43;2.20;;;11.80;99.90;;;;;;1891766;75;25281;-88
2023/09/03 06:25:38;;;;;;;6.30;2.60;;;11.90;99.90;;;;;;1899260;75;25297;-87
2023/09/03 06:28:28;;;;;;;5.20;2.17;;;12.10;99.90;;;;;;1881637;75;25231;-88
2023/09/03 06:31:16;;;;;;;6.10;2.10;;;12.10;99.90;;;;;;1883306;75;25251;-87
2023/09/03 06:34:05;;;;;;;2.70;2.23;;;12.20;99.90;;;;;;1898874;75;25213;-87
2023/09/03 06:39:33;;;;;;;2.47;2.10;;;12.30;99.90;;;;;;1945048;72;27541;-87
2023/09/03 06:42:22;;;;;;;8.00;2.17;;;12.50;99.90;;;;;;1908257;74;25792;-87
2023/09/03 06:45:11;;;;;;;5.53;1.90;;;12.70;99.90;;;;;;1896201;74;25205;-88
2023/09/03 06:48:00;;;;;;;4.17;1.70;;;12.60;99.90;;;;;;1898283;74;25179;-87
2023/09/03 06:50:50;;;;;;;3.73;1.90;;;12.50;99.90;;;;;;1893728;74;25343;-87
2023/09/03 06:53:39;;;;;;;4.20;1.93;;;12.50;99.90;;;;;;1896852;74;25203;-88
2023/09/03 06:56:28;;;;;;;3.50;1.87;;;12.50;99.90;;;;;;1889011;74;25212;-88
2023/09/03 06:59:16;;;;;;;2.00;1.80;;;12.60;99.90;;;;;;1902887;74;25317;-87
2023/09/03 07:02:05;;;;;;;7.10;2.10;;;12.60;99.90;;;;;;1898324;74;25173;-87
2023/09/03 07:04:56;;;;;;;4.97;2.30;;;12.50;99.90;;;;;;1890758;74;25220;-88
2023/09/03 07:07:44;;;;;;;3.27;2.10;;;12.50;99.90;;;;;;1911286;74;25679;-88
2023/09/03 07:10:33;;;;;;;3.73;2.23;;;12.50;99.90;;;;;;1902131;74;25265;-88
2023/09/03 07:13:22;;;;;;;3.67;2.10;;;12.60;99.90;;;;;;1892152;74;25891;-88
2023/09/03 07:18:49;;;;;;;2.27;1.97;;;12.90;99.90;;;;;;1909250;72;27182;-87
2023/09/03 07:21:38;;;;;;;2.53;1.90;;;12.90;99.90;;;;;;1897710;74;25167;-87
2023/09/03 07:24:26;;;;;;;3.73;1.90;;;13.00;99.90;;;;;;1887487;74;25230;-87
2023/09/03 07:27:15;;;;;;;3.10;2.00;;;13.00;99.90;;;;;;1899002;74;25338;-87
2023/09/03 07:30:03;;;;;;;3.43;1.83;;;13.10;99.90;;;;;;1897316;75;25256;-87
2023/09/03 07:32:52;;;;;;;4.27;2.30;;;13.20;99.90;;;;;;1907298;73;25326;-87
2023/09/03 07:35:40;;;;;;;2.00;1.90;;;13.30;99.90;;;;;;1898489;75;25305;-87
2023/09/03 07:38:29;;;;;;;3.53;1.90;;;13.40;99.90;;;;;;1899234;75;25219;-87
2023/09/03 07:41:19;;;;;;;3.03;2.10;;;13.50;99.90;;;;;;1907208;73;25329;-87
2023/09/03 07:44:08;;;;;;;4.03;1.90;;;13.50;99.90;;;;;;1898940;73;25336;-87
2023/09/03 07:46:57;;;;;;;1.70;1.60;;;13.60;99.90;;;;;;1901345;73;25283;-87
2023/09/03 07:52:27;;;;;;;2.37;1.67;;;13.70;99.90;;;;;;1924392;72;27156;-87
2023/09/03 07:55:16;;;;;;;6.80;1.70;;;13.90;99.90;;;;;;1908274;73;25271;-87
2023/09/03 08:00:56;;;;;;;1.60;1.50;;;14.20;99.90;;;;;;2021802;69;26677;-87
2023/09/03 08:03:45;;;;;;;2.17;1.70;;;14.40;99.90;;;;;;2001059;70;25251;-87
2023/09/03 08:06:34;;;;;;;2.03;1.83;;;14.60;99.90;;;;;;2002771;70;25256;-87
2023/09/03 08:09:24;;;;;;;2.03;1.67;;;14.80;99.90;;;;;;2001258;70;25249;-87
2023/09/03 08:12:12;;;;;;;1.77;1.67;;;14.80;99.90;;;;;;2001576;70;26938;-87
2023/09/03 08:15:01;;;;;;;2.30;1.40;;;14.70;99.90;;;;;;2002863;70;25250;-87
2023/09/03 08:17:49;;;;;;;1.83;1.60;;;14.60;99.90;;;;;;2003287;70;26279;-87
2023/09/03 08:20:38;;;;;;;2.40;1.50;;;14.80;99.90;;;;;;2001630;70;25264;-87
2023/09/03 08:23:27;;;;;;;3.30;1.43;;;14.90;99.90;;;;;;2000396;70;25303;-87
2023/09/03 08:26:16;;;;;;;1.67;1.50;;;14.90;99.90;;;;;;2001766;70;25287;-87
2023/09/03 08:29:05;;;;;;;2.10;1.60;;;14.90;99.90;;;;;;2002175;70;25252;-87
2023/09/03 08:31:54;;;;;;;1.93;1.50;;;14.90;99.90;;;;;;1998856;70;25229;-87
2023/09/03 08:37:28;;;;;;;2.53;1.67;;;15.20;99.90;;;;;;1928452;72;27622;-87
2023/09/03 08:40:18;;;;;;;2.83;2.00;;;15.30;99.90;;;;;;1897101;74;25764;-87
2023/09/03 08:43:08;;;;;;;3.00;1.70;;;15.30;99.90;;;;;;1879785;75;25370;-87
2023/09/03 08:45:59;;;;;;;6.47;1.60;;;15.30;99.90;;;;;;1877137;74;25361;-87
2023/09/03 08:48:48;;;;;;;1.43;1.30;;;15.30;99.90;;;;;;1877730;74;25282;-87
2023/09/03 08:54:18;;;;;;;2.00;1.47;;;15.50;99.90;;;;;;1927805;72;27044;-87
2023/09/03 08:57:09;;;;;;;2.97;1.30;;;15.60;99.90;;;;;;1909657;73;25243;-87
2023/09/03 08:59:58;;;;;;;1.50;1.40;;;15.70;99.90;;;;;;1909037;73;25302;-87
2023/09/03 09:02:48;;;;;;;1.50;1.40;;;15.80;99.90;;;;;;1875458;75;25293;-87
2023/09/03 09:05:37;;;;;;;4.07;1.50;;;15.90;99.90;;;;;;1834984;77;25293;-88
2023/09/03 09:11:11;;;;;;;1.40;1.30;;;16.20;99.90;;;;;;1927710;72;26966;-87
2023/09/03 09:14:00;;;;;;;1.60;1.40;;;16.20;99.90;;;;;;1901178;75;25313;-87
2023/09/03 09:16:49;;;;;;;4.27;1.33;;;16.30;99.90;;;;;;1904648;75;25676;-87
2023/09/03 09:19:38;;;;;;;1.90;1.50;;;16.20;99.90;;;;;;1896028;75;25248;-87
2023/09/03 09:25:06;;;;;;;4.70;1.60;;;16.40;99.90;;;;;;1933435;72;28501;-87
2023/09/03 09:27:56;;;;;;;3.80;1.50;;;16.40;99.90;;;;;;1886325;75;25239;-87
2023/09/03 09:33:47;;;;;;;3.27;1.50;;;16.40;99.90;;;;;;1950769;72;27048;-87
2023/09/03 09:36:36;;;;;;;2.77;1.50;;;16.40;99.90;;;;;;1941737;73;25596;-87
2023/09/03 09:42:11;;;;;;;3.43;1.47;;;16.70;99.90;;;;;;1929709;72;28560;-87
2023/09/03 09:45:00;;;;;;;8.47;1.60;;;16.80;99.90;;;;;;1908281;74;25216;-87
2023/09/03 09:47:50;;;;;;;3.10;1.40;;;16.80;99.90;;;;;;1890631;75;25204;-87
2023/09/03 09:50:40;;;;;;;1.40;1.20;;;16.90;99.90;;;;;;1890664;75;25248;-87
2023/09/03 09:53:29;;;;;;;1.40;1.30;;;16.90;99.90;;;;;;1904518;74;25255;-87
2023/09/03 09:56:19;;;;;;;1.57;1.47;;;16.90;99.90;;;;;;1904960;74;25343;-87
2023/09/03 10:01:52;;;;;;;1.50;1.40;;;17.00;99.90;;;;;;1922014;72;27175;-87
2023/09/03 10:04:43;;;;;;;1.50;1.20;;;17.00;99.90;;;;;;1897172;74;25785;-88
2023/09/03 10:07:32;;;;;;;3.00;1.17;;;17.00;99.90;;;;;;1899686;74;25235;-87
2023/09/03 10:10:21;;;;;;;1.50;1.40;;;16.90;99.90;;;;;;1894043;74;25304;-87
2023/09/03 10:13:10;;;;;;;1.53;1.43;;;17.00;99.90;;;;;;1888865;74;25227;-88
2023/09/03 10:18:45;;;;;;;1.40;1.30;;;17.00;99.90;;;;;;1946494;72;27081;-87
2023/09/03 10:21:35;;;;;;;4.50;1.40;;;16.90;99.90;;;;;;1939179;73;25253;-88
2023/09/03 10:24:25;;;;;;;1.70;1.50;;;16.80;99.90;;;;;;1930206;73;25201;-87
2023/09/03 10:30:03;;;;;;;2.30;1.40;;;17.10;99.90;;;;;;1941784;72;26910;-88
2023/09/03 10:35:34;;;;;;;1.80;1.20;;;17.10;99.90;;;;;;1924743;72;27583;-88
2023/09/03 10:41:28;;;;;;;1.40;1.30;;;17.40;99.90;;;;;;1928111;72;27464;-87
2023/09/03 10:44:17;;;;;;;1.37;1.27;;;17.40;99.90;;;;;;1869349;75;25720;-88
2023/09/03 10:47:06;;;;;;;1.93;1.33;;;17.40;99.90;;;;;;1870355;75;25215;-87
2023/09/03 10:52:40;;;;;;;2.60;1.40;;;17.40;99.90;;;;;;1945802;72;26599;-88
2023/09/03 10:58:31;;;;;;;1.70;1.60;;;17.70;99.90;;;;;;1922846;72;27192;-87
2023/09/03 11:01:20;;;;;;;1.57;1.47;;;17.60;99.90;;;;;;1907350;74;25248;-87
2023/09/03 11:04:09;;;;;;;1.60;1.50;;;17.60;99.90;;;;;;1835176;76;25263;-87
2023/09/03 11:07:23;;;;;;;1.77;1.67;;;17.70;99.90;;;;;;1857097;76;25176;-87
2023/09/03 11:10:40;;;;;;;1.70;1.53;;;17.60;99.90;;;;;;1911865;75;25269;-87
2023/09/03 11:13:28;;;;;;;4.10;1.70;;;17.50;99.90;;;;;;1904986;74;25184;-87
2023/09/03 11:16:17;;;;;;;1.90;1.80;;;17.60;99.90;;;;;;1905731;73;25771;-87
2023/09/03 11:19:07;;;;;;;1.87;1.70;;;17.60;99.90;;;;;;1918706;74;25291;-88
2023/09/03 11:21:58;;;;;;;2.07;1.87;;;17.70;99.90;;;;;;1911744;74;25744;-88
2023/09/03 11:24:49;;;;;;;1.93;1.73;;;17.70;99.90;;;;;;1913853;74;25751;-88
2023/09/03 11:27:52;;;;;;;1.97;1.70;;;17.80;99.90;;;;;;1920358;74;25619;-88
2023/09/03 11:33:25;;;;;;;4.43;1.90;;;18.00;99.90;;;;;;1931829;72;26981;-88
2023/09/03 11:36:13;;;;;;;2.33;2.10;;;18.10;99.90;;;;;;1902673;75;25297;-87
2023/09/03 11:39:02;;;;;;;4.17;2.17;;;18.20;99.90;;;;;;1904136;75;25774;-88
2023/09/03 11:41:51;;;;;;;2.37;2.17;;;18.20;99.90;;;;;;1891484;73;25282;-88
2023/09/03 11:44:40;;;;;;;3.20;2.30;;;18.20;99.90;;;;;;1882987;76;25228;-87
2023/09/03 11:47:29;;;;;;;2.40;1.97;;;18.20;99.90;;;;;;1869351;75;25772;-88
2023/09/03 11:50:19;;;;;;;3.67;1.90;;;18.10;99.90;;;;;;1862880;76;25248;-88
2023/09/03 11:53:09;;;;;;;2.90;2.10;;;18.30;99.90;;;;;;1867325;76;25762;-88
2023/09/03 11:58:38;;;;;;;2.47;2.20;;;18.80;99.90;;;;;;1933005;72;27178;-87
2023/09/03 12:01:27;;;;;;;2.53;2.33;;;18.80;99.90;;;;;;1894316;73;25241;-88
2023/09/03 12:04:16;;;;;;;3.53;2.73;;;18.60;99.90;;;;;;1854608;76;25776;-87
2023/09/03 12:09:47;;;;;;;5.50;3.00;;;18.50;99.90;;;;;;1926295;72;27079;-87
2023/09/03 12:12:35;;;;;;;4.10;2.90;;;18.50;99.90;;;;;;1893327;75;25281;-87
2023/09/03 12:15:25;;;;;;;4.73;3.10;;;18.50;99.90;;;;;;1894442;75;25235;-87
2023/09/03 12:18:14;;;;;;;6.20;3.20;;;18.50;99.90;;;;;;1887522;75;25238;-88
2023/09/03 12:21:02;;;;;;;7.87;3.20;;;18.50;99.90;;;;;;1902128;75;25227;-88
2023/09/03 12:26:36;;;;;;;6.00;3.30;;;18.50;99.90;;;;;;1933803;72;27002;-88
2023/09/03 12:29:25;;;;;;;4.70;3.17;;;18.60;99.90;;;;;;1906860;75;25284;-88
2023/09/03 12:34:57;;;;;;;5.37;3.63;;;18.80;99.90;;;;;;1924081;72;27111;-88
2023/09/03 12:40:25;;;;;;;6.03;3.10;;;18.70;99.90;;;;;;1938389;72;27318;-87
2023/09/03 12:43:14;;;;;;;6.07;3.20;;;18.60;99.90;;;;;;1884894;74;25194;-88
2023/09/03 12:48:44;;;;;;;5.87;3.10;;;18.50;99.90;;;;;;1943994;72;27052;-88
2023/09/03 12:51:34;;;;;;;6.27;3.00;;;18.30;99.90;;;;;;1897596;74;25181;-87
2023/09/03 12:54:22;;;;;;;5.00;2.70;;;18.10;99.90;;;;;;1892770;75;25203;-88
2023/09/03 12:57:11;;;;;;;7.93;2.90;;;18.10;99.90;;;;;;1887600;75;25212;-88
2023/09/03 13:00:01;;;;;;;5.20;2.80;;;18.10;99.90;;;;;;1888011;75;25291;-88
2023/09/03 13:02:50;;;;;;;5.20;3.13;;;18.10;99.90;;;;;;1897271;75;25697;-89
2023/09/03 13:08:25;;;;;;;8.67;3.00;;;18.10;99.90;;;;;;1974697;71;27084;-87
2023/09/03 13:11:13;;;;;;;11.63;3.60;;;18.10;99.90;;;;;;1934308;72;25165;-87
2023/09/03 13:16:42;;;;;;;9.27;3.10;;;18.20;99.90;;;;;;1906213;74;27140;-87
2023/09/03 13:19:31;;;;;;;12.27;3.10;;;18.20;99.90;;;;;;1860204;76;25276;-87
2023/09/03 13:22:19;;;;;;;6.80;2.90;;;18.30;99.90;;;;;;1865316;76;25334;-87
2023/09/03 13:25:09;;;;;;;5.87;2.90;;;18.50;99.90;;;;;;1862609;76;25238;-87
2023/09/03 13:27:58;;;;;;;8.50;3.03;;;18.50;99.90;;;;;;1869141;76;25364;-89
2023/09/03 13:30:47;;;;;;;7.17;2.97;;;18.50;99.90;;;;;;1862755;76;25762;-87
2023/09/03 13:33:39;;;;;;;8.83;2.73;;;18.60;99.90;;;;;;1861518;76;25296;-87
2023/09/03 13:36:28;;;;;;;9.27;2.80;;;18.60;99.90;;;;;;1863969;75;25188;-88
2023/09/03 13:39:17;;;;;;;5.83;2.60;;;18.80;99.90;;;;;;1860162;75;25164;-88
2023/09/03 13:42:06;;;;;;;7.30;2.60;;;18.90;99.90;;;;;;1882014;75;25293;-88
2023/09/03 13:44:55;;;;;;;9.57;2.80;;;19.00;99.90;;;;;;1895928;75;25824;-89
2023/09/03 13:47:44;;;;;;;8.03;3.20;;;19.00;99.90;;;;;;1889520;75;25226;-88
2023/09/03 13:50:33;;;;;;;6.13;2.70;;;18.90;99.90;;;;;;1891948;75;25811;-88
2023/09/03 13:57:14;;;;;;;6.73;2.73;;;18.70;99.90;;;;;;1983865;71;26528;-90
2023/09/03 14:00:04;;;;;;;5.57;2.70;;;18.90;99.90;;;;;;1968269;72;25200;-90
2023/09/03 14:05:47;;;;;;;9.67;3.20;;;19.00;99.90;;;;;;1955681;72;27636;-91
2023/09/03 14:24:19;;;;;;;8.17;3.20;;;18.80;99.90;;;;;;1976871;72;26906;-90
2023/09/03 14:29:56;;;;;;;10.00;3.30;;;18.40;99.90;;;;;;1940788;72;27199;-89
2023/09/03 14:32:44;;;;;;;9.60;3.00;;;18.40;99.90;;;;;;1922895;73;25225;-88
2023/09/03 14:35:34;;;;;;;5.03;2.60;;;18.30;99.90;;;;;;1925656;73;25235;-88
2023/09/03 14:38:23;;;;;;;5.73;2.97;;;18.50;99.90;;;;;;1925208;73;25276;-87
2023/09/03 14:41:12;;;;;;;8.93;3.20;;;18.70;99.90;;;;;;1931411;73;25742;-88
2023/09/03 14:46:42;;;;;;;6.87;2.90;;;18.50;99.90;;;;;;1932979;72;27403;-88
2023/09/03 14:49:41;;;;;;;6.30;2.87;;;18.60;99.90;;;;;;1899702;73;25304;-88
2023/09/03 14:52:30;;;;;;;8.00;3.23;;;18.80;99.90;;;;;;1913097;74;25827;-88
2023/09/03 14:55:19;;;;;;;5.37;3.07;;;18.80;99.90;;;;;;1903012;74;25712;-88
2023/09/03 14:58:08;;;;;;;7.53;3.07;;;18.60;99.90;;;;;;1914067;74;25685;-87
2023/09/03 15:00:57;;;;;;;5.07;3.10;;;18.60;99.90;;;;;;1911050;74;25253;-88
2023/09/03 15:03:47;;;;;;;9.80;3.10;;;18.70;99.90;;;;;;1903320;74;25254;-88
2023/09/03 15:06:36;;;;;;;8.93;2.90;;;18.70;99.90;;;;;;1901376;74;25291;-87
2023/09/03 15:09:24;;;;;;;5.30;2.90;;;18.80;99.90;;;;;;1891918;74;25758;-87
2023/09/03 15:12:13;;;;;;;7.53;2.90;;;18.70;99.90;;;;;;1910599;74;25678;-87
2023/09/03 15:18:15;;;;;;;9.97;2.83;;;18.50;99.90;;;;;;1983927;71;27151;-87
2023/09/03 15:34:46;;;;;;;4.57;2.80;;;18.20;99.90;;;;;;1921762;73;27628;-87
2023/09/03 15:40:26;;;;;;;6.37;2.63;;;18.20;99.90;;;;;;1955170;72;27561;-88
2023/09/03 15:43:14;;;;;;;3.93;2.60;;;18.20;99.90;;;;;;1915976;73;25218;-88
2023/09/03 15:46:02;;;;;;;3.80;3.13;;;18.20;99.90;;;;;;1886812;75;25311;-88
2023/09/03 15:48:51;;;;;;;5.87;2.93;;;18.20;99.90;;;;;;1916017;75;25215;-87
2023/09/03 15:51:44;;;;;;;4.03;2.73;;;18.20;99.90;;;;;;1908671;75;25191;-88
2023/09/03 15:54:30;;;;;;;3.33;2.73;;;18.20;99.90;;;;;;1911995;75;25180;-88
2023/09/03 16:00:13;;;;;;;3.37;2.50;;;18.40;99.90;;;;;;1942934;72;27369;-88
2023/09/03 16:03:01;;;;;;;4.07;2.60;;;18.40;99.90;;;;;;1937873;72;25254;-88
2023/09/03 16:05:50;;;;;;;4.27;2.40;;;18.30;99.90;;;;;;1937916;73;25224;-88
2023/09/03 16:11:19;;;;;;;2.60;2.13;;;18.20;99.90;;;;;;1935422;72;27111;-88
2023/09/03 16:14:08;;;;;;;2.60;2.30;;;18.20;99.90;;;;;;1921639;74;25230;-88
2023/09/03 16:16:58;;;;;;;3.33;2.50;;;18.10;99.90;;;;;;1920218;74;26478;-87
2023/09/03 16:19:46;;;;;;;4.33;2.40;;;18.10;99.90;;;;;;1912371;74;25655;-87
2023/09/03 16:22:35;;;;;;;3.43;2.40;;;18.10;99.90;;;;;;1921430;74;25185;-87
2023/09/03 16:25:24;;;;;;;2.57;2.10;;;18.00;99.90;;;;;;1915926;73;25242;-88
2023/09/03 16:28:13;;;;;;;3.23;2.10;;;18.10;99.90;;;;;;1921899;74;25213;-88
2023/09/03 16:31:02;;;;;;;4.37;2.00;;;18.10;99.90;;;;;;1922805;73;26079;-88
2023/09/03 16:33:51;;;;;;;5.20;2.40;;;17.90;99.90;;;;;;1918743;74;25925;-88
2023/09/03 16:40:34;;;;;;;2.50;2.30;;;17.80;99.90;;;;;;1973387;71;26910;-90
2023/09/03 16:46:12;;;;;;;3.93;2.13;;;17.70;99.90;;;;;;1944770;72;27659;-87
2023/09/03 16:49:01;;;;;;;3.83;2.50;;;17.60;99.90;;;;;;1924166;73;25494;-89
2023/09/03 16:51:50;;;;;;;5.97;3.90;;;17.60;99.90;;;;;;1929856;73;25229;-89
2023/09/03 17:09:18;;;;;;;3.30;2.40;;;17.50;99.90;;;;;;1974075;70;26986;-89
2023/09/03 17:15:08;;;;;;;4.07;2.00;;;17.30;99.90;;;;;;1957948;72;29030;-89
2023/09/03 17:31:55;;;;;;;3.80;2.07;;;17.10;99.90;;;;;;1953650;73;26447;-89
2023/09/03 17:48:10;;;;;;;4.93;2.00;;;16.80;99.90;;;;;;2072413;68;26950;-89
2023/09/03 17:51:00;;;;;;;2.57;2.00;;;16.50;99.90;;;;;;2027811;70;25139;-89
2023/09/03 17:56:41;;;;;;;2.40;1.70;;;16.40;99.90;;;;;;1945692;72;27544;-89
2023/09/03 17:59:30;;;;;;;3.53;1.60;;;16.30;99.90;;;;;;1921052;73;25314;-89
2023/09/03 18:02:20;;;;;;;3.30;1.80;;;16.30;99.90;;;;;;1918386;75;25232;-89
2023/09/03 18:05:16;;;;;;;3.20;1.83;;;16.20;99.90;;;;;;1921371;73;25793;-89
2023/09/03 18:08:06;;;;;;;3.93;1.90;;;16.20;99.90;;;;;;1927732;73;25162;-89
2023/09/03 18:10:55;;;;;;;3.10;1.93;;;16.20;99.90;;;;;;1924784;73;25239;-89
2023/09/03 18:13:45;;;;;;;5.67;2.00;;;16.20;99.90;;;;;;1913633;73;25227;-89
2023/09/03 18:16:34;;;;;;;4.63;1.80;;;16.20;99.90;;;;;;1933439;73;25196;-89
2023/09/03 18:19:23;;;;;;;2.50;1.70;;;16.10;99.90;;;;;;1918397;73;25242;-89
2023/09/03 18:22:13;;;;;;;1.70;1.60;;;16.10;99.90;;;;;;1916955;73;25281;-89
2023/09/03 18:25:01;;;;;;;5.23;1.80;;;16.10;99.90;;;;;;1931333;73;25221;-89
2023/09/03 18:27:50;;;;;;;3.43;1.60;;;16.10;99.90;;;;;;1931027;73;25220;-89
2023/09/03 18:30:39;;;;;;;2.10;1.63;;;16.10;99.90;;;;;;1925962;73;25213;-89
2023/09/03 18:33:28;;;;;;;3.33;1.80;;;16.10;99.90;;;;;;1923625;73;25762;-89
2023/09/03 18:39:08;;;;;;;3.60;1.50;;;16.10;99.90;;;;;;1947112;72;27129;-89
2023/09/03 18:41:56;;;;;;;3.47;1.50;;;16.10;99.90;;;;;;1910769;73;25923;-89
2023/09/03 18:44:45;;;;;;;3.93;2.00;;;16.10;99.90;;;;;;1917268;73;25343;-89
2023/09/03 18:47:34;;;;;;;5.60;2.10;;;16.10;99.90;;;;;;1925964;73;25354;-89
2023/09/03 18:50:22;;;;;;;2.30;1.80;;;16.00;99.90;;;;;;1922740;73;25264;-89
2023/09/03 18:53:12;;;;;;;4.97;1.90;;;16.00;99.90;;;;;;1928053;73;25209;-90
2023/09/03 18:56:04;;;;;;;2.50;1.80;;;15.90;99.90;;;;;;1924393;73;25289;-89